Time;durP1;ratioP1;P1;durP2;ratioP2;P2;SDS_P1;SDS_P2;PMS_P1;PMS_P2;Temp;Humidity;BMP_temperature;BMP_pressure;BME280_temperature;BME280_humidity;BME280_pressure;Samples;Min_cycle;Max_cycle;Signal;HPM_P1;HPM_P2
2022/04/25 00:01:10;;;;;;;;;10.00;8.50;;;;;-146.67;100.00;57155.34;5084867;28;61770;-82
2022/04/25 00:03:36;;;;;;;;;11.50;9.00;;;;;-146.67;100.00;57155.34;5084678;27;62120;-82
2022/04/25 00:06:02;;;;;;;;;14.25;11.50;;;;;-146.67;100.00;57155.34;5083506;28;61845;-82
2022/04/25 00:08:27;;;;;;;;;9.25;7.50;;;;;-146.67;100.00;57155.34;5083931;27;62195;-82
2022/04/25 00:10:53;;;;;;;;;11.00;10.50;;;;;-146.67;100.00;57155.34;5084704;28;61928;-82
2022/04/25 00:13:18;;;;;;;;;12.75;8.50;;;;;-146.67;100.00;57155.34;5084623;28;62459;-81
2022/04/25 00:15:43;;;;;;;;;12.25;10.00;;;;;-146.67;100.00;57155.34;5084859;28;61865;-82
2022/04/25 00:18:10;;;;;;;;;11.75;9.00;;;;;-146.67;100.00;57155.34;5083237;27;62198;-82
2022/04/25 00:20:36;;;;;;;;;13.00;9.75;;;;;-146.67;100.00;57155.34;5083060;28;61828;-82
2022/04/25 00:23:04;;;;;;;;;7.75;7.75;;;;;-146.67;100.00;57155.34;5084354;28;61754;-82
2022/04/25 00:25:34;;;;;;;;;11.25;9.00;;;;;-146.67;100.00;57155.34;5083343;28;62238;-82
2022/04/25 00:28:01;;;;;;;;;9.00;8.50;;;;;-146.67;100.00;57155.34;5083836;28;62616;-82
2022/04/25 00:30:28;;;;;;;;;13.00;9.50;;;;;-146.67;100.00;57155.34;5100007;27;61965;-82
2022/04/25 00:32:55;;;;;;;;;11.75;9.50;;;;;-146.67;100.00;57155.34;5084304;28;61867;-82
2022/04/25 00:35:20;;;;;;;;;12.75;9.50;;;;;-146.67;100.00;57155.34;5100158;27;61771;-82
2022/04/25 00:37:45;;;;;;;;;13.00;9.00;;;;;-146.67;100.00;57155.34;5081840;28;63759;-82
2022/04/25 00:40:11;;;;;;;;;9.50;8.00;;;;;-146.67;100.00;57155.34;5084013;28;61808;-82
2022/04/25 00:42:36;;;;;;;;;11.50;8.50;;;;;-146.67;100.00;57155.34;5084360;28;61851;-82
2022/04/25 00:45:02;;;;;;;;;11.50;9.50;;;;;-146.67;100.00;57155.34;5084313;28;62018;-82
2022/04/25 00:47:29;;;;;;;;;12.75;9.00;;;;;-146.67;100.00;57155.34;5099081;27;63421;-82
2022/04/25 00:49:54;;;;;;;;;13.25;8.50;;;;;-146.67;100.00;57155.34;5082797;28;61999;-82
2022/04/25 00:52:20;;;;;;;;;10.25;7.75;;;;;-146.67;100.00;57155.34;5083833;28;62292;-82
2022/04/25 00:54:45;;;;;;;;;11.25;7.00;;;;;-146.67;100.00;57155.34;5084495;28;61923;-82
2022/04/25 00:57:11;;;;;;;;;11.25;10.00;;;;;-146.67;100.00;57155.34;5081710;28;63886;-82
2022/04/25 00:59:38;;;;;;;;;8.00;4.75;;;;;-146.67;100.00;57155.34;5099772;27;61911;-82
2022/04/25 01:02:06;;;;;;;;;8.50;5.75;;;;;-146.67;100.00;57155.34;5083742;28;61842;-82
2022/04/25 01:04:32;;;;;;;;;9.00;7.00;;;;;-146.67;100.00;57155.34;5084268;28;61738;-82
2022/04/25 01:06:57;;;;;;;;;10.25;7.00;;;;;-146.67;100.00;57155.34;5098859;27;64109;-82
2022/04/25 01:09:25;;;;;;;;;8.75;7.00;;;;;-146.67;100.00;57155.34;5083208;28;62023;-81
2022/04/25 01:11:52;;;;;;;;;8.00;7.25;;;;;-146.67;100.00;57155.34;5099553;27;61800;-81
2022/04/25 01:14:20;;;;;;;;;7.50;7.50;;;;;-146.67;100.00;57155.34;5083749;27;61819;-82
2022/04/25 01:16:47;;;;;;;;;8.25;7.50;;;;;-146.67;100.00;57155.34;5083024;28;62256;-82
2022/04/25 01:19:13;;;;;;;;;9.00;7.00;;;;;-146.67;100.00;57155.34;5083274;27;61987;-81
2022/04/25 01:22:02;;;;;;;;;10.75;6.25;;;;;-146.67;100.00;57155.34;5082164;28;61789;-82
2022/04/25 01:27:17;;;;;;;;;11.00;7.75;;;;;-146.67;100.00;57155.34;5082875;28;61838;-81
2022/04/25 01:29:47;;;;;;;;;10.75;6.50;;;;;-146.67;100.00;57155.34;5083647;27;62008;-82
2022/04/25 01:32:13;;;;;;;;;9.00;9.00;;;;;-146.67;100.00;57155.34;5082991;28;61776;-82
2022/04/25 01:34:39;;;;;;;;;7.00;7.00;;;;;-146.67;100.00;57155.34;5083790;28;61970;-82
2022/04/25 01:37:06;;;;;;;;;9.00;9.00;;;;;-146.67;100.00;57155.34;5082726;28;61981;-82
2022/04/25 01:39:36;;;;;;;;;6.00;6.00;;;;;-146.67;100.00;57155.34;5082937;27;61904;-82
2022/04/25 01:42:04;;;;;;;;;9.50;6.50;;;;;-146.67;100.00;57155.34;5082097;28;61943;-82
2022/04/25 01:44:30;;;;;;;;;7.00;7.00;;;;;-146.67;100.00;57155.34;5083490;28;61775;-81
2022/04/25 01:46:56;;;;;;;;;7.75;6.00;;;;;-146.67;100.00;57155.34;5081036;28;63695;-82
2022/04/25 01:49:21;;;;;;;;;9.75;7.00;;;;;-146.67;100.00;57155.34;5082920;28;61988;-82
2022/04/25 01:51:47;;;;;;;;;9.00;7.50;;;;;-146.67;100.00;57155.34;5083117;28;61952;-82
2022/04/25 01:54:13;;;;;;;;;7.25;6.75;;;;;-146.67;100.00;57155.34;5083191;28;61842;-82
2022/04/25 01:56:38;;;;;;;;;9.75;8.00;;;;;-146.67;100.00;57155.34;5082487;28;61846;-82
2022/04/25 01:59:04;;;;;;;;;4.75;4.75;;;;;-146.67;100.00;57155.34;5083111;27;61904;-82
2022/04/25 02:01:29;;;;;;;;;8.75;6.50;;;;;-146.67;100.00;57155.34;5081972;28;62537;-82
2022/04/25 02:03:55;;;;;;;;;8.25;7.25;;;;;-146.67;100.00;57155.34;5081997;28;62016;-82
2022/04/25 02:06:20;;;;;;;;;8.00;6.75;;;;;-146.67;100.00;57155.34;5082187;27;61930;-82
2022/04/25 02:08:46;;;;;;;;;7.75;6.25;;;;;-146.67;100.00;57155.34;5082478;28;61971;-82
2022/04/25 02:11:21;;;;;;;;;7.00;6.50;;;;;-146.67;100.00;57155.34;5083053;28;61734;-82
2022/04/25 02:13:51;;;;;;;;;13.75;7.00;;;;;-146.67;100.00;57155.34;5083103;27;61774;-81
2022/04/25 02:16:17;;;;;;;;;8.25;6.50;;;;;-146.67;100.00;57155.34;5082132;28;61942;-82
2022/04/25 02:18:42;;;;;;;;;7.50;6.00;;;;;-146.67;100.00;57155.34;5082635;27;61943;-82
2022/04/25 02:21:08;;;;;;;;;9.00;7.25;;;;;-146.67;100.00;57155.34;5081514;28;61833;-82
2022/04/25 02:23:34;;;;;;;;;8.50;6.25;;;;;-146.67;100.00;57155.34;5082529;27;61781;-82
2022/04/25 02:25:59;;;;;;;;;7.50;4.75;;;;;-146.67;100.00;57155.34;5077366;28;63871;-82
2022/04/25 02:28:25;;;;;;;;;6.50;6.50;;;;;-146.67;100.00;57155.34;5061847;28;61973;-81
2022/04/25 02:30:51;;;;;;;;;8.75;8.75;;;;;-146.67;100.00;57155.34;5062390;28;62148;-82
2022/04/25 02:33:17;;;;;;;;;7.50;7.00;;;;;-146.67;100.00;57155.34;5062458;28;61896;-81
2022/04/25 02:35:43;;;;;;;;;5.50;5.50;;;;;-146.67;100.00;57155.34;5060161;28;64152;-81
2022/04/25 02:38:09;;;;;;;;;10.25;9.00;;;;;-146.67;100.00;57155.34;5062100;28;61968;-82
2022/04/25 02:40:34;;;;;;;;;12.50;8.00;;;;;-146.67;100.00;57155.34;5061881;28;61701;-81
2022/04/25 02:43:00;;;;;;;;;10.00;8.00;;;;;-146.67;100.00;57155.34;5062220;28;61922;-81
2022/04/25 02:45:25;;;;;;;;;12.00;10.00;;;;;-146.67;100.00;57155.34;5061242;28;61973;-81
2022/04/25 02:47:51;;;;;;;;;7.25;6.75;;;;;-146.67;100.00;57155.34;5062366;28;62013;-82
2022/04/25 02:50:17;;;;;;;;;10.25;7.00;;;;;-146.67;100.00;57155.34;5062036;28;61787;-82
2022/04/25 02:52:43;;;;;;;;;7.50;7.00;;;;;-146.67;100.00;57155.34;5061925;28;61934;-82
2022/04/25 02:55:09;;;;;;;;;11.25;7.25;;;;;-146.67;100.00;57155.34;5060214;28;64629;-82
2022/04/25 02:57:35;;;;;;;;;9.50;8.00;;;;;-146.67;100.00;57155.34;5061386;28;62152;-81
2022/04/25 03:00:00;;;;;;;;;12.00;7.50;;;;;-146.67;100.00;57155.34;5061976;28;61948;-81
2022/04/25 03:02:26;;;;;;;;;12.00;9.00;;;;;-146.67;100.00;57155.34;5062086;28;61771;-82
2022/04/25 03:04:51;;;;;;;;;9.50;9.50;;;;;-146.67;100.00;57155.34;5059977;28;63604;-82
2022/04/25 03:07:17;;;;;;;;;12.00;8.25;;;;;-146.67;100.00;57155.34;5061504;28;62014;-81
2022/04/25 03:09:42;;;;;;;;;18.50;11.75;;;;;-146.67;100.00;57155.34;5061567;28;62109;-82
2022/04/25 03:12:09;;;;;;;;;8.00;8.00;;;;;-146.67;100.00;57155.34;5061651;28;61944;-81
2022/04/25 03:14:35;;;;;;;;;10.25;8.50;;;;;-146.67;100.00;57155.34;5064263;28;62719;-82
2022/04/25 03:17:01;;;;;;;;;16.00;8.50;;;;;-146.67;100.00;57155.34;5063982;28;62334;-82
2022/04/25 03:19:26;;;;;;;;;12.00;8.75;;;;;-146.67;100.00;57155.34;5077116;27;62023;-81
2022/04/25 03:21:52;;;;;;;;;9.00;9.00;;;;;-146.67;100.00;57155.34;5085605;28;62467;-82
2022/04/25 03:24:18;;;;;;;;;13.50;12.25;;;;;-146.67;100.00;57155.34;5084911;28;62611;-82
2022/04/25 03:26:44;;;;;;;;;12.00;10.50;;;;;-146.67;100.00;57155.34;5085190;28;61766;-81
2022/04/25 03:29:10;;;;;;;;;9.25;7.00;;;;;-146.67;100.00;57155.34;5085456;28;61778;-82
2022/04/25 03:31:36;;;;;;;;;8.50;8.50;;;;;-146.67;100.00;57155.34;5100979;27;61900;-82
2022/04/25 03:34:02;;;;;;;;;12.25;7.25;;;;;-146.67;100.00;57155.34;5084841;28;61806;-82
2022/04/25 03:36:28;;;;;;;;;9.00;8.25;;;;;-146.67;100.00;57155.34;5085250;28;62125;-81
2022/04/25 03:38:53;;;;;;;;;11.75;10.25;;;;;-146.67;100.00;57155.34;5084808;28;61746;-81
2022/04/25 03:41:20;;;;;;;;;12.25;10.00;;;;;-146.67;100.00;57155.34;5085299;28;61895;-82
2022/04/25 03:43:46;;;;;;;;;9.00;9.00;;;;;-146.67;100.00;57155.34;5084434;27;61796;-81
2022/04/25 03:46:13;;;;;;;;;13.50;8.00;;;;;-146.67;100.00;57155.34;5085387;27;61792;-82
2022/04/25 03:48:41;;;;;;;;;12.25;9.75;;;;;-146.67;100.00;57155.34;5085394;28;62024;-82
2022/04/25 03:51:07;;;;;;;;;10.75;9.50;;;;;-146.67;100.00;57155.34;5085318;28;61812;-82
2022/04/25 03:53:32;;;;;;;;;13.25;11.25;;;;;-146.67;100.00;57155.34;5084193;27;62850;-81
2022/04/25 03:58:42;;;;;;;;;12.75;8.25;;;;;-146.67;100.00;57155.34;5085080;28;62191;-81
2022/04/25 04:01:07;;;;;;;;;12.25;7.25;;;;;-146.67;100.00;57155.34;5085244;28;61873;-82
2022/04/25 04:03:36;;;;;;;;;13.00;9.25;;;;;-146.67;100.00;57155.34;5082903;28;63799;-82
2022/04/25 04:06:03;;;;;;;;;8.75;7.00;;;;;-146.67;100.00;57155.34;5083340;28;62133;-81
2022/04/25 04:08:28;;;;;;;;;11.00;10.50;;;;;-146.67;100.00;57155.34;5084734;28;61782;-81
2022/04/25 04:10:54;;;;;;;;;15.25;11.25;;;;;-146.67;100.00;57155.34;5084658;27;62143;-81
2022/04/25 04:13:19;;;;;;;;;15.50;11.00;;;;;-146.67;100.00;57155.34;5084272;28;61804;-81
2022/04/25 04:15:45;;;;;;;;;14.50;11.25;;;;;-146.67;100.00;57155.34;5084612;28;61750;-81
2022/04/25 04:18:10;;;;;;;;;13.50;11.00;;;;;-146.67;100.00;57155.34;5084633;27;62111;-81
2022/04/25 04:20:36;;;;;;;;;16.25;11.50;;;;;-146.67;100.00;57155.34;5084966;28;61842;-81
2022/04/25 04:23:01;;;;;;;;;15.50;13.50;;;;;-146.67;100.00;57155.34;5083788;28;62148;-81
2022/04/25 04:25:29;;;;;;;;;12.75;12.00;;;;;-146.67;100.00;57155.34;5078994;28;61753;-81
2022/04/25 04:27:56;;;;;;;;;12.00;10.50;;;;;-146.67;100.00;57155.34;5064189;28;61759;-81
2022/04/25 04:30:22;;;;;;;;;12.25;8.50;;;;;-146.67;100.00;57155.34;5064400;28;62019;-81
2022/04/25 04:32:47;;;;;;;;;15.50;10.00;;;;;-146.67;100.00;57155.34;5062221;28;63504;-81
2022/04/25 04:35:15;;;;;;;;;13.75;13.00;;;;;-146.67;100.00;57155.34;5064124;28;61926;-80
2022/04/25 04:37:41;;;;;;;;;14.75;10.75;;;;;-146.67;100.00;57155.34;5063769;28;61944;-81
2022/04/25 04:42:53;;;;;;;;;16.50;12.75;;;;;-146.67;100.00;57155.34;5063371;28;61829;-81
2022/04/25 04:45:19;;;;;;;;;13.75;12.25;;;;;-146.67;100.00;57155.34;5062599;28;62001;-81
2022/04/25 04:47:44;;;;;;;;;12.00;9.25;;;;;-146.67;100.00;57155.34;5063958;28;61716;-82
2022/04/25 04:50:15;;;;;;;;;22.50;13.50;;;;;-146.67;100.00;57155.34;5063984;28;61728;-82
2022/04/25 04:52:43;;;;;;;;;19.75;13.25;;;;;-146.67;100.00;57155.34;5063252;28;62974;-82
2022/04/25 04:55:09;;;;;;;;;16.75;13.00;;;;;-146.67;100.00;57155.34;5063473;28;61985;-82
2022/04/25 04:57:34;;;;;;;;;17.25;12.00;;;;;-146.67;100.00;57155.34;5062174;28;61714;-81
2022/04/25 05:00:00;;;;;;;;;17.75;15.00;;;;;-146.67;100.00;57155.34;5062360;28;61934;-82
2022/04/25 05:02:25;;;;;;;;;18.50;17.50;;;;;-146.67;100.00;57155.34;5070024;28;61753;-82
2022/04/25 05:04:50;;;;;;;;;20.50;14.00;;;;;-146.67;100.00;57155.34;5083847;27;61721;-82
2022/04/25 05:07:16;;;;;;;;;24.25;18.50;;;;;-146.67;100.00;57155.34;5099029;27;62013;-83
2022/04/25 05:09:42;;;;;;;;;19.00;15.00;;;;;-146.67;100.00;57155.34;5082563;27;61785;-82
2022/04/25 05:12:09;;;;;;;;;18.50;17.75;;;;;-146.67;100.00;57155.34;5085197;27;63356;-82
2022/04/25 05:14:34;;;;;;;;;27.00;16.75;;;;;-146.67;100.00;57155.34;5083751;27;61825;-83
2022/04/25 05:16:59;;;;;;;;;17.00;14.25;;;;;-146.67;100.00;57155.34;5098510;27;62165;-83
2022/04/25 05:19:25;;;;;;;;;22.50;16.25;;;;;-146.67;100.00;57155.34;5095753;27;62284;-82
2022/04/25 05:21:50;;;;;;;;;17.75;15.50;;;;;-146.67;100.00;57155.34;5100111;27;64157;-83
2022/04/25 05:24:16;;;;;;;;;19.50;17.50;;;;;-146.67;100.00;57155.34;5098226;27;62365;-83
2022/04/25 05:26:41;;;;;;;;;21.00;17.50;;;;;-146.67;100.00;57155.34;5083135;27;61849;-83
2022/04/25 05:29:07;;;;;;;;;25.00;19.00;;;;;-146.67;100.00;57155.34;5082561;28;62269;-83
2022/04/25 05:31:33;;;;;;;;;26.50;17.50;;;;;-146.67;100.00;57155.34;5082092;27;61817;-83
2022/04/25 05:33:59;;;;;;;;;20.00;17.00;;;;;-146.67;100.00;57155.34;5098494;27;61951;-81
2022/04/25 05:36:25;;;;;;;;;21.25;15.50;;;;;-146.67;100.00;57155.34;5097623;27;62051;-81
2022/04/25 05:38:51;;;;;;;;;20.50;14.50;;;;;-146.67;100.00;57155.34;5097457;27;61957;-81
2022/04/25 05:41:17;;;;;;;;;26.25;20.00;;;;;-146.67;100.00;57155.34;5081985;27;61938;-81
2022/04/25 05:43:43;;;;;;;;;17.50;16.00;;;;;-146.67;100.00;57155.34;5098298;27;62218;-82
2022/04/25 05:46:09;;;;;;;;;21.00;18.50;;;;;-146.67;100.00;57155.34;5082472;27;61959;-83
2022/04/25 05:54:04;;;;;;;;;25.50;19.00;;;;;-146.67;100.00;57155.34;5082245;28;62107;-78
2022/04/25 05:56:29;;;;;;;;;19.00;17.50;;;;;-146.67;100.00;57155.34;5082343;27;61866;-78
2022/04/25 05:58:55;;;;;;;;;29.50;20.75;;;;;-146.67;100.00;57155.34;5082072;28;62508;-79
2022/04/25 06:01:20;;;;;;;;;29.75;17.25;;;;;-146.67;100.00;57155.34;5080292;27;63736;-84
2022/04/25 06:03:46;;;;;;;;;19.25;14.50;;;;;-146.67;100.00;57155.34;5082351;27;61892;-78
2022/04/25 06:06:11;;;;;;;;;24.00;19.25;;;;;-146.67;100.00;57155.34;5081642;28;62255;-80
2022/04/25 06:08:37;;;;;;;;;24.25;20.00;;;;;-146.67;100.00;57155.34;5081956;28;62255;-81
2022/04/25 06:11:03;;;;;;;;;27.75;19.00;;;;;-146.67;100.00;57155.34;5096975;27;63635;-82
2022/04/25 06:13:28;;;;;;;;;18.50;14.75;;;;;-146.67;100.00;57155.34;5082174;27;61908;-81
2022/04/25 06:15:55;;;;;;;;;21.75;21.00;;;;;-146.67;100.00;57155.34;5082657;27;61916;-81
2022/04/25 06:18:20;;;;;;;;;24.25;19.50;;;;;-146.67;100.00;57155.34;5095125;27;61968;-82
2022/04/25 06:20:46;;;;;;;;;22.75;18.75;;;;;-146.67;100.00;57155.34;5079813;28;64683;-81
2022/04/25 06:23:11;;;;;;;;;23.00;19.25;;;;;-146.67;100.00;57155.34;5097578;27;61700;-82
2022/04/25 06:25:37;;;;;;;;;28.25;22.00;;;;;-146.67;100.00;57155.34;5081900;28;61667;-82
2022/04/25 06:28:04;;;;;;;;;26.00;19.25;;;;;-146.67;100.00;57155.34;5081929;28;61742;-79
2022/04/25 06:30:30;;;;;;;;;27.50;21.25;;;;;-146.67;100.00;57155.34;5097129;27;63729;-81
2022/04/25 06:33:00;;;;;;;;;21.00;19.50;;;;;-146.67;100.00;57155.34;5096267;27;61990;-78
2022/04/25 06:35:28;;;;;;;;;26.50;21.75;;;;;-146.67;100.00;57155.34;5067705;28;61185;-80
2022/04/25 06:37:54;;;;;;;;;20.00;16.75;;;;;-146.67;100.00;57155.34;5073031;28;62224;-80
2022/04/25 06:40:20;;;;;;;;;23.00;21.00;;;;;-146.67;100.00;57155.34;5080386;28;61884;-78
2022/04/25 06:42:46;;;;;;;;;17.50;15.75;;;;;-146.67;100.00;57155.34;5081234;27;61958;-79
2022/04/25 06:45:13;;;;;;;;;23.50;19.75;;;;;-146.67;100.00;57155.34;5080847;27;61782;-81
2022/04/25 06:47:39;;;;;;;;;22.25;17.50;;;;;-146.67;100.00;57155.34;5081371;27;61748;-81
2022/04/25 06:50:05;;;;;;;;;24.00;21.00;;;;;-146.67;100.00;57155.34;5081365;28;61798;-84
2022/04/25 06:52:31;;;;;;;;;31.00;25.25;;;;;-146.67;100.00;57155.34;5081632;28;61746;-82
2022/04/25 06:56:06;;;;;;;;;;;;;;;;;;;;;
2022/04/25 06:58:31;;;;;;;;;28.75;22.25;;;;;-146.67;100.00;57155.34;5074406;28;68048;-80
2022/04/25 07:00:57;;;;;;;;;25.50;20.00;;;;;-146.67;100.00;57155.34;5080976;27;62014;-79
2022/04/25 07:03:24;;;;;;;;;22.75;20.50;;;;;-146.67;100.00;57155.34;5094106;27;62183;-80
2022/04/25 07:05:52;;;;;;;;;33.25;26.75;;;;;-146.67;100.00;57155.34;5081238;27;62190;-79
2022/04/25 07:08:17;;;;;;;;;25.00;22.25;;;;;-146.67;100.00;57155.34;5097098;27;61918;-78
2022/04/25 07:10:43;;;;;;;;;26.25;20.00;;;;;-146.67;100.00;57155.34;5081042;27;61946;-80
2022/04/25 07:13:08;;;;;;;;;28.50;23.50;;;;;-146.67;100.00;57155.34;5081819;27;62048;-78
2022/04/25 07:15:34;;;;;;;;;22.00;18.75;;;;;-146.67;100.00;57155.34;5081002;27;62328;-78
2022/04/25 07:18:00;;;;;;;;;20.75;19.25;;;;;-146.67;100.00;57155.34;5094345;27;61966;-78
2022/04/25 07:20:25;;;;;;;;;26.25;22.50;;;;;-146.67;100.00;57155.34;5079638;27;61952;-80
2022/04/25 07:31:03;;;;;;;;;28.00;21.75;;;;;-146.67;100.00;57155.34;5080793;28;62377;-81
2022/04/25 07:33:29;;;;;;;;;27.00;22.75;;;;;-146.67;100.00;57155.34;5080954;28;61815;-80
2022/04/25 07:35:54;;;;;;;;;24.75;22.00;;;;;-146.67;100.00;57155.34;5081329;28;61750;-81
2022/04/25 07:38:20;;;;;;;;;21.75;18.00;;;;;-146.67;100.00;57155.34;5080540;28;62026;-81
2022/04/25 07:40:45;;;;;;;;;20.50;16.50;;;;;-146.67;100.00;57155.34;5080291;27;62617;-83
2022/04/25 07:43:11;;;;;;;;;22.25;17.75;;;;;-146.67;100.00;57155.34;5080339;27;61897;-81
2022/04/25 07:45:37;;;;;;;;;27.75;21.00;;;;;-146.67;100.00;57155.34;5080180;27;61916;-80
2022/04/25 07:48:03;;;;;;;;;25.75;22.00;;;;;-146.67;100.00;57155.34;5085711;27;61762;-81
2022/04/25 07:50:28;;;;;;;;;34.50;25.50;;;;;-146.67;100.00;57155.34;5095024;27;64130;-81
2022/04/25 07:52:54;;;;;;;;;19.75;19.25;;;;;-146.67;100.00;57155.34;5081189;27;61967;-80
2022/04/25 07:55:19;;;;;;;;;22.00;22.00;;;;;-146.67;100.00;57155.34;5081131;28;61901;-86
2022/04/25 07:57:45;;;;;;;;;29.50;24.25;;;;;-146.67;100.00;57155.34;5095926;27;62037;-87
2022/04/25 08:00:11;;;;;;;;;33.50;24.75;;;;;-146.67;100.00;57155.34;5080958;28;61923;-83
2022/04/25 08:02:36;;;;;;;;;33.00;22.75;;;;;-146.67;100.00;57155.34;5083500;27;61859;-83
2022/04/25 08:05:02;;;;;;;;;22.75;18.75;;;;;-146.67;100.00;57155.34;5100242;27;62353;-83
2022/04/25 08:07:29;;;;;;;;;30.25;25.25;;;;;-146.67;100.00;57155.34;5083875;27;62058;-82
2022/04/25 08:09:54;;;;;;;;;29.25;21.00;;;;;-146.67;100.00;57155.34;5073897;27;61950;-83
2022/04/25 08:18:04;;;;;;;;;21.75;19.75;;;;;-146.67;100.00;57155.34;5082448;27;61985;-84
2022/04/25 08:20:37;;;;;;;;;23.75;20.75;;;;;-146.67;100.00;57155.34;5077483;27;62614;-84
2022/04/25 08:23:11;;;;;;;;;24.00;16.75;;;;;-146.67;100.00;57155.34;5069827;27;62268;-82
2022/04/25 08:25:39;;;;;;;;;34.75;21.75;;;;;-146.67;100.00;57155.34;5072638;27;61625;-82
2022/04/25 08:28:05;;;;;;;;;24.00;19.00;;;;;-146.67;100.00;57155.34;5062867;27;61949;-83
2022/04/25 08:30:32;;;;;;;;;33.00;22.75;;;;;-146.67;100.00;57155.34;5067271;27;65480;-83
2022/04/25 08:32:57;;;;;;;;;26.75;21.75;;;;;-146.67;100.00;57155.34;5063742;27;61833;-83
2022/04/25 08:35:24;;;;;;;;;27.25;20.25;;;;;-146.67;100.00;57155.34;5079735;27;61967;-83
2022/04/25 08:37:49;;;;;;;;;26.00;19.00;;;;;-146.67;100.00;57155.34;5066492;27;61905;-82
2022/04/25 08:40:15;;;;;;;;;23.25;17.75;;;;;-146.67;100.00;57155.34;5071419;27;61886;-83
2022/04/25 08:42:40;;;;;;;;;24.75;23.25;;;;;-146.67;100.00;57155.34;5082361;27;62228;-83
2022/04/25 08:45:07;;;;;;;;;30.75;25.00;;;;;-146.67;100.00;57155.34;5073510;27;61784;-84
2022/04/25 08:47:58;;;;;;;;;29.25;22.00;;;;;-146.67;100.00;57155.34;5083558;27;61948;-83
2022/04/25 08:50:25;;;;;;;;;20.00;18.00;;;;;-146.67;100.00;57155.34;5074676;27;63279;-83
2022/04/25 08:52:52;;;;;;;;;26.50;20.50;;;;;-146.67;100.00;57155.34;5065685;27;62047;-83
2022/04/25 08:55:18;;;;;;;;;21.75;18.25;;;;;-146.67;100.00;57155.34;5068300;27;61941;-84
2022/04/25 08:57:45;;;;;;;;;28.25;24.50;;;;;-146.67;100.00;57155.34;5070052;27;61889;-85
2022/04/25 09:00:13;;;;;;;;;23.50;20.75;;;;;-146.67;100.00;57155.34;5062597;27;61961;-84
2022/04/25 09:02:39;;;;;;;;;28.00;23.25;;;;;-146.67;100.00;57155.34;5080196;27;61915;-84
2022/04/25 09:05:11;;;;;;;;;21.75;19.75;;;;;-146.67;100.00;57155.34;5061757;27;61785;-85
2022/04/25 09:07:38;;;;;;;;;26.50;20.75;;;;;-146.67;100.00;57155.34;5061358;27;62075;-86
2022/04/25 09:10:09;;;;;;;;;30.50;21.50;;;;;-146.67;100.00;57155.34;5060495;27;62600;-84
2022/04/25 09:12:41;;;;;;;;;32.75;24.25;;;;;-146.67;100.00;57155.34;5064328;27;62080;-85
2022/04/25 09:15:08;;;;;;;;;24.25;18.50;;;;;-146.67;100.00;57155.34;5077030;27;61975;-85
2022/04/25 09:17:38;;;;;;;;;31.50;22.25;;;;;-146.67;100.00;57155.34;5063588;27;61790;-84
2022/04/25 09:20:06;;;;;;;;;22.00;20.75;;;;;-146.67;100.00;57155.34;5063341;27;62089;-85
2022/04/25 09:22:34;;;;;;;;;24.00;18.75;;;;;-146.67;100.00;57155.34;5061674;27;61877;-85
2022/04/25 09:25:11;;;;;;;;;25.25;20.25;;;;;-146.67;100.00;57155.34;5074214;27;62011;-84
2022/04/25 09:27:38;;;;;;;;;23.00;19.50;;;;;-146.67;100.00;57155.34;5097724;27;62178;-84
2022/04/25 09:30:20;;;;;;;;;26.75;22.00;;;;;-146.67;100.00;57155.34;5081686;27;61888;-84
2022/04/25 09:32:50;;;;;;;;;19.50;18.00;;;;;-146.67;100.00;57155.34;5080999;27;61861;-85
2022/04/25 09:35:24;;;;;;;;;24.50;19.50;;;;;-146.67;100.00;57155.34;5082474;27;61834;-87
2022/04/25 09:37:50;;;;;;;;;26.75;19.75;;;;;-146.67;100.00;57155.34;5082954;28;61845;-85
2022/04/25 09:40:20;;;;;;;;;19.25;17.25;;;;;-146.67;100.00;57155.34;5082596;28;61810;-86
2022/04/25 09:42:47;;;;;;;;;25.00;19.50;;;;;-146.67;100.00;57155.34;5098742;27;61820;-85
2022/04/25 09:45:15;;;;;;;;;20.00;16.75;;;;;-146.67;100.00;57155.34;5081781;28;61835;-85
2022/04/25 09:47:41;;;;;;;;;23.50;18.50;;;;;-146.67;100.00;57155.34;5083210;27;61739;-85
2022/04/25 09:50:09;;;;;;;;;17.50;17.00;;;;;-146.67;100.00;57155.34;5098116;27;65112;-85
2022/04/25 09:52:53;;;;;;;;;25.75;18.50;;;;;-146.67;100.00;57155.34;5083941;28;61943;-85
2022/04/25 09:55:19;;;;;;;;;22.00;16.50;;;;;-146.67;100.00;57155.34;5082605;28;61757;-85
2022/04/25 09:57:46;;;;;;;;;15.75;14.00;;;;;-146.67;100.00;57155.34;5084024;27;61832;-85
2022/04/25 10:00:14;;;;;;;;;21.75;15.00;;;;;-146.67;100.00;57155.34;5083404;27;63091;-84
2022/04/25 10:02:41;;;;;;;;;18.25;16.50;;;;;-146.67;100.00;57155.34;5083331;27;61985;-83
2022/04/25 10:05:17;;;;;;;;;22.75;18.50;;;;;-146.67;100.00;57155.34;5083519;27;61695;-84
2022/04/25 10:07:43;;;;;;;;;19.00;13.25;;;;;-146.67;100.00;57155.34;5083004;28;61871;-84
2022/04/25 10:10:10;;;;;;;;;20.75;15.75;;;;;-146.67;100.00;57155.34;5082152;28;61889;-83
2022/04/25 10:12:37;;;;;;;;;18.75;15.75;;;;;-146.67;100.00;57155.34;5082129;28;62003;-85
2022/04/25 10:15:04;;;;;;;;;20.50;16.50;;;;;-146.67;100.00;57155.34;5081437;28;61822;-85
2022/04/25 10:17:31;;;;;;;;;20.75;15.25;;;;;-146.67;100.00;57155.34;5109031;27;61986;-82
2022/04/25 10:20:00;;;;;;;;;21.25;19.00;;;;;-146.67;100.00;57155.34;5083533;27;63106;-83
2022/04/25 10:22:26;;;;;;;;;18.25;11.00;;;;;-146.67;100.00;57155.34;5080715;27;61719;-82
2022/04/25 10:24:51;;;;;;;;;17.50;12.25;;;;;-146.67;100.00;57155.34;5084054;27;61821;-87
2022/04/25 10:27:26;;;;;;;;;27.50;19.00;;;;;-146.67;100.00;57155.34;5085521;27;61774;-86
2022/04/25 10:29:55;;;;;;;;;13.00;12.75;;;;;-146.67;100.00;57155.34;5079722;28;63979;-84
2022/04/25 10:32:25;;;;;;;;;19.50;14.25;;;;;-146.67;100.00;57155.34;5073420;28;62007;-78
2022/04/25 10:34:59;;;;;;;;;11.00;11.00;;;;;-146.67;100.00;57155.34;5062341;28;62089;-84
2022/04/25 10:37:36;;;;;;;;;14.25;10.75;;;;;-146.67;100.00;57155.34;5064167;28;62044;-86
2022/04/25 10:40:04;;;;;;;;;15.50;12.00;;;;;-146.67;100.00;57155.34;5063124;28;62098;-86
2022/04/25 10:45:14;;;;;;;;;13.25;12.25;;;;;-146.67;100.00;57155.34;5067103;28;61325;-84
2022/04/25 10:47:58;;;;;;;;;13.75;12.25;;;;;-146.67;100.00;57155.34;5063047;28;61897;-84
2022/04/25 10:50:24;;;;;;;;;18.00;14.50;;;;;-146.67;100.00;57155.34;5061753;28;62000;-84
2022/04/25 10:52:54;;;;;;;;;18.00;15.50;;;;;-146.67;100.00;57155.34;5061925;28;61881;-84
2022/04/25 10:58:03;;;;;;;;;16.50;12.50;;;;;-146.67;100.00;57155.34;5062236;28;61954;-85
2022/04/25 11:00:36;;;;;;;;;15.50;12.00;;;;;-146.67;100.00;57155.34;5061446;28;61715;-84
2022/04/25 11:03:10;;;;;;;;;18.75;11.25;;;;;-146.67;100.00;57155.34;5094373;27;61792;-84
2022/04/25 11:05:45;;;;;;;;;21.00;12.50;;;;;-146.67;100.00;57155.34;5061966;28;61925;-87
2022/04/25 11:08:37;;;;;;;;;12.25;12.25;;;;;-146.67;100.00;57155.34;5061080;28;61985;-84
2022/04/25 11:11:09;;;;;;;;;14.50;13.00;;;;;-146.67;100.00;57155.34;5058349;28;62788;-85
2022/04/25 11:14:01;;;;;;;;;18.25;14.50;;;;;-146.67;100.00;57155.34;5094437;27;62011;-83
2022/04/25 11:16:28;;;;;;;;;17.25;10.50;;;;;-146.67;100.00;57155.34;5061806;28;62120;-84
2022/04/25 11:19:22;;;;;;;;;17.50;13.75;;;;;-146.67;100.00;57155.34;5094375;27;62018;-82
2022/04/25 11:21:55;;;;;;;;;17.00;12.50;;;;;-146.67;100.00;57155.34;5073423;27;64103;-82
2022/04/25 11:24:38;;;;;;;;;14.75;12.00;;;;;-146.67;100.00;57155.34;5101488;27;61937;-84
2022/04/25 11:27:06;;;;;;;;;15.50;13.00;;;;;-146.67;100.00;57155.34;5087147;27;61989;-86
2022/04/25 11:29:31;;;;;;;;;14.50;12.75;;;;;-146.67;100.00;57155.34;5091474;27;61957;-86
2022/04/25 11:32:24;;;;;;;;;10.00;10.00;;;;;-146.67;100.00;57155.34;5090471;27;62716;-83
2022/04/25 11:34:50;;;;;;;;;8.75;8.75;;;;;-146.67;100.00;57155.34;5081499;28;61707;-82